sensor_id;sensor_type;location;lat;lon;timestamp;pressure;altitude;pressure_sealevel;temperature;humidity
28606;BME280;46498;49.968;7.754;2024-01-25T00:00:10;-18477.00;;;6.27;100.00
28606;BME280;46498;49.968;7.754;2024-01-25T00:05:11;-18478.00;;;6.27;100.00
28606;BME280;46498;49.968;7.754;2024-01-25T00:10:12;-18475.00;;;6.19;100.00
28606;BME280;46498;49.968;7.754;2024-01-25T00:15:16;-18474.00;;;6.16;100.00
28606;BME280;46498;49.968;7.754;2024-01-25T00:20:17;-18473.00;;;6.13;100.00
28606;BME280;46498;49.968;7.754;2024-01-25T00:25:18;-18470.00;;;6.03;100.00
28606;BME280;46498;49.968;7.754;2024-01-25T00:30:19;-18469.00;;;6.01;100.00
28606;BME280;46498;49.968;7.754;2024-01-25T00:35:21;-18466.00;;;5.90;100.00
28606;BME280;46498;49.968;7.754;2024-01-25T00:40:23;-18467.00;;;5.94;100.00
28606;BME280;46498;49.968;7.754;2024-01-25T00:45:25;-18467.00;;;5.95;100.00
28606;BME280;46498;49.968;7.754;2024-01-25T00:50:26;-18466.00;;;5.92;100.00
28606;BME280;46498;49.968;7.754;2024-01-25T00:55:28;-18464.00;;;5.83;100.00
28606;BME280;46498;49.968;7.754;2024-01-25T01:00:30;-18464.00;;;5.86;100.00
28606;BME280;46498;49.968;7.754;2024-01-25T01:05:32;-18464.00;;;5.84;100.00
28606;BME280;46498;49.968;7.754;2024-01-25T01:10:33;-18462.00;;;5.78;100.00
28606;BME280;46498;49.968;7.754;2024-01-25T01:15:34;-18463.00;;;5.80;100.00
28606;BME280;46498;49.968;7.754;2024-01-25T01:20:35;-18461.00;;;5.76;100.00
28606;BME280;46498;49.968;7.754;2024-01-25T01:25:39;-18460.00;;;5.73;100.00
28606;BME280;46498;49.968;7.754;2024-01-25T01:30:40;-18458.00;;;5.67;100.00
28606;BME280;46498;49.968;7.754;2024-01-25T01:35:42;-18458.00;;;5.67;100.00
28606;BME280;46498;49.968;7.754;2024-01-25T01:40:44;-18461.00;;;5.74;100.00
28606;BME280;46498;49.968;7.754;2024-01-25T01:45:46;-18455.00;;;5.58;100.00
28606;BME280;46498;49.968;7.754;2024-01-25T01:50:47;-18456.00;;;5.61;100.00
28606;BME280;46498;49.968;7.754;2024-01-25T01:55:48;-18457.00;;;5.64;100.00
28606;BME280;46498;49.968;7.754;2024-01-25T02:00:50;-18455.00;;;5.56;100.00
28606;BME280;46498;49.968;7.754;2024-01-25T02:05:51;-18452.00;;;5.47;100.00
28606;BME280;46498;49.968;7.754;2024-01-25T02:10:52;-18454.00;;;5.55;100.00
28606;BME280;46498;49.968;7.754;2024-01-25T02:15:53;-18452.00;;;5.47;100.00
28606;BME280;46498;49.968;7.754;2024-01-25T02:20:54;-18450.00;;;5.40;100.00
28606;BME280;46498;49.968;7.754;2024-01-25T02:25:55;-18450.00;;;5.40;100.00
28606;BME280;46498;49.968;7.754;2024-01-25T02:30:58;-18450.00;;;5.40;100.00
28606;BME280;46498;49.968;7.754;2024-01-25T02:35:59;-18448.00;;;5.36;100.00
28606;BME280;46498;49.968;7.754;2024-01-25T02:41:00;-18446.00;;;5.28;100.00
28606;BME280;46498;49.968;7.754;2024-01-25T02:46:01;-18444.00;;;5.23;100.00
28606;BME280;46498;49.968;7.754;2024-01-25T02:51:02;-18441.00;;;5.14;100.00
28606;BME280;46498;49.968;7.754;2024-01-25T02:56:04;-18444.00;;;5.21;100.00
28606;BME280;46498;49.968;7.754;2024-01-25T03:01:06;-18443.00;;;5.19;100.00
28606;BME280;46498;49.968;7.754;2024-01-25T03:06:08;-18444.00;;;5.24;100.00
28606;BME280;46498;49.968;7.754;2024-01-25T03:11:10;-18444.00;;;5.21;100.00
28606;BME280;46498;49.968;7.754;2024-01-25T03:16:11;-18446.00;;;5.28;100.00
28606;BME280;46498;49.968;7.754;2024-01-25T03:21:14;-18444.00;;;5.23;100.00
28606;BME280;46498;49.968;7.754;2024-01-25T03:26:15;-18441.00;;;5.12;100.00
28606;BME280;46498;49.968;7.754;2024-01-25T03:31:16;-18438.00;;;5.04;100.00
28606;BME280;46498;49.968;7.754;2024-01-25T03:36:18;-18438.00;;;5.03;100.00
28606;BME280;46498;49.968;7.754;2024-01-25T03:41:21;-18437.00;;;4.99;100.00
28606;BME280;46498;49.968;7.754;2024-01-25T03:46:23;-18435.00;;;4.93;100.00
28606;BME280;46498;49.968;7.754;2024-01-25T03:51:24;-18436.00;;;4.96;100.00
28606;BME280;46498;49.968;7.754;2024-01-25T03:56:25;-18433.00;;;4.88;100.00
28606;BME280;46498;49.968;7.754;2024-01-25T04:01:27;-18433.00;;;4.87;100.00
28606;BME280;46498;49.968;7.754;2024-01-25T04:06:32;-18431.00;;;4.83;100.00
28606;BME280;46498;49.968;7.754;2024-01-25T04:11:33;-18433.00;;;4.88;100.00
28606;BME280;46498;49.968;7.754;2024-01-25T04:16:34;-18435.00;;;4.94;100.00
28606;BME280;46498;49.968;7.754;2024-01-25T04:21:37;-18434.00;;;4.91;100.00
28606;BME280;46498;49.968;7.754;2024-01-25T04:26:38;-18437.00;;;5.00;100.00
28606;BME280;46498;49.968;7.754;2024-01-25T04:31:43;-18437.00;;;5.01;100.00
28606;BME280;46498;49.968;7.754;2024-01-25T04:36:45;-18436.00;;;4.98;100.00
28606;BME280;46498;49.968;7.754;2024-01-25T04:41:46;-18436.00;;;4.97;100.00
28606;BME280;46498;49.968;7.754;2024-01-25T04:46:47;-18434.00;;;4.90;100.00
28606;BME280;46498;49.968;7.754;2024-01-25T04:51:48;-18431.00;;;4.82;100.00
28606;BME280;46498;49.968;7.754;2024-01-25T04:56:49;-18433.00;;;4.87;100.00
28606;BME280;46498;49.968;7.754;2024-01-25T05:01:50;-18436.00;;;4.96;100.00
28606;BME280;46498;49.968;7.754;2024-01-25T05:06:52;-18434.00;;;4.90;100.00
28606;BME280;46498;49.968;7.754;2024-01-25T05:11:53;-18438.00;;;5.04;100.00
28606;BME280;46498;49.968;7.754;2024-01-25T05:16:58;-18435.00;;;4.95;100.00
28606;BME280;46498;49.968;7.754;2024-01-25T05:21:59;-18435.00;;;4.93;100.00
28606;BME280;46498;49.968;7.754;2024-01-25T05:27:01;-18434.00;;;4.90;100.00
28606;BME280;46498;49.968;7.754;2024-01-25T05:32:03;-18438.00;;;5.04;100.00
28606;BME280;46498;49.968;7.754;2024-01-25T05:37:04;-18445.00;;;5.25;100.00
28606;BME280;46498;49.968;7.754;2024-01-25T05:42:05;-18443.00;;;5.19;100.00
28606;BME280;46498;49.968;7.754;2024-01-25T05:47:06;-18440.00;;;5.09;100.00
28606;BME280;46498;49.968;7.754;2024-01-25T05:52:07;-18439.00;;;5.07;100.00
28606;BME280;46498;49.968;7.754;2024-01-25T05:57:09;-18440.00;;;5.10;100.00
28606;BME280;46498;49.968;7.754;2024-01-25T06:02:10;-18444.00;;;5.24;100.00
28606;BME280;46498;49.968;7.754;2024-01-25T06:07:11;-18446.00;;;5.29;100.00
28606;BME280;46498;49.968;7.754;2024-01-25T06:12:13;-18446.00;;;5.29;100.00
28606;BME280;46498;49.968;7.754;2024-01-25T06:17:14;-18443.00;;;5.19;100.00
28606;BME280;46498;49.968;7.754;2024-01-25T06:22:15;-18440.00;;;5.09;100.00
28606;BME280;46498;49.968;7.754;2024-01-25T06:27:18;-18437.00;;;4.99;100.00
28606;BME280;46498;49.968;7.754;2024-01-25T06:32:19;-18434.00;;;4.90;100.00
28606;BME280;46498;49.968;7.754;2024-01-25T06:37:27;-18433.00;;;4.88;100.00
28606;BME280;46498;49.968;7.754;2024-01-25T06:42:28;-18435.00;;;4.94;100.00
28606;BME280;46498;49.968;7.754;2024-01-25T06:47:29;-18436.00;;;4.98;100.00
28606;BME280;46498;49.968;7.754;2024-01-25T06:52:30;-18437.00;;;4.99;100.00
28606;BME280;46498;49.968;7.754;2024-01-25T06:57:31;-18438.00;;;5.03;100.00
28606;BME280;46498;49.968;7.754;2024-01-25T07:02:33;-18438.00;;;5.02;100.00
28606;BME280;46498;49.968;7.754;2024-01-25T07:07:34;-18433.00;;;4.87;100.00
28606;BME280;46498;49.968;7.754;2024-01-25T07:12:36;-18430.00;;;4.79;100.00
28606;BME280;46498;49.968;7.754;2024-01-25T07:17:37;-18429.00;;;4.76;100.00
28606;BME280;46498;49.968;7.754;2024-01-25T07:22:38;-18425.00;;;4.64;100.00
28606;BME280;46498;49.968;7.754;2024-01-25T07:27:39;-18422.00;;;4.53;100.00
28606;BME280;46498;49.968;7.754;2024-01-25T07:32:40;-18422.00;;;4.52;100.00
28606;BME280;46498;49.968;7.754;2024-01-25T07:37:46;-18424.00;;;4.60;100.00
28606;BME280;46498;49.968;7.754;2024-01-25T07:42:47;-18432.00;;;4.86;100.00
28606;BME280;46498;49.968;7.754;2024-01-25T07:47:48;-18429.00;;;4.76;100.00
28606;BME280;46498;49.968;7.754;2024-01-25T07:52:54;-18433.00;;;4.87;100.00
28606;BME280;46498;49.968;7.754;2024-01-25T07:57:56;-18430.00;;;4.79;100.00
28606;BME280;46498;49.968;7.754;2024-01-25T08:02:57;-18430.00;;;4.77;100.00
28606;BME280;46498;49.968;7.754;2024-01-25T08:07:58;-18446.00;;;5.29;100.00
28606;BME280;46498;49.968;7.754;2024-01-25T08:12:59;-18447.00;;;5.32;100.00
28606;BME280;46498;49.968;7.754;2024-01-25T08:18:08;-18456.00;;;5.60;100.00
28606;BME280;46498;49.968;7.754;2024-01-25T08:23:09;-18465.00;;;5.88;100.00
28606;BME280;46498;49.968;7.754;2024-01-25T08:28:11;-18470.00;;;6.05;100.00
28606;BME280;46498;49.968;7.754;2024-01-25T08:33:13;-18471.00;;;6.08;100.00
28606;BME280;46498;49.968;7.754;2024-01-25T08:38:14;-18482.00;;;6.41;100.00
28606;BME280;46498;49.968;7.754;2024-01-25T08:43:15;-18493.00;;;6.74;100.00
28606;BME280;46498;49.968;7.754;2024-01-25T08:48:15;-18499.00;;;6.94;100.00
28606;BME280;46498;49.968;7.754;2024-01-25T08:53:19;-18512.00;;;7.34;100.00
28606;BME280;46498;49.968;7.754;2024-01-25T08:58:22;-18516.00;;;7.47;100.00
28606;BME280;46498;49.968;7.754;2024-01-25T09:03:24;-18512.00;;;7.36;100.00
28606;BME280;46498;49.968;7.754;2024-01-25T09:08:25;-18519.00;;;7.57;100.00
28606;BME280;46498;49.968;7.754;2024-01-25T09:13:26;-18522.00;;;7.66;100.00
28606;BME280;46498;49.968;7.754;2024-01-25T09:18:27;-18509.00;;;7.26;100.00
28606;BME280;46498;49.968;7.754;2024-01-25T09:23:28;-18512.00;;;7.34;100.00
28606;BME280;46498;49.968;7.754;2024-01-25T09:28:29;-18510.00;;;7.29;100.00
28606;BME280;46498;49.968;7.754;2024-01-25T09:33:31;-18504.00;;;7.12;100.00
28606;BME280;46498;49.968;7.754;2024-01-25T09:38:32;-18486.00;;;6.54;100.00
28606;BME280;46498;49.968;7.754;2024-01-25T09:43:35;-18506.00;;;7.18;100.00
28606;BME280;46498;49.968;7.754;2024-01-25T09:48:37;-18540.00;;;8.22;100.00
28606;BME280;46498;49.968;7.754;2024-01-25T09:53:41;-18552.00;;;8.62;100.00
28606;BME280;46498;49.968;7.754;2024-01-25T09:58:43;-18556.00;;;8.73;100.00
28606;BME280;46498;49.968;7.754;2024-01-25T10:03:47;-18562.00;;;8.93;100.00
28606;BME280;46498;49.968;7.754;2024-01-25T10:08:48;-18569.00;;;9.14;100.00
28606;BME280;46498;49.968;7.754;2024-01-25T10:13:50;-18563.00;;;8.97;100.00
28606;BME280;46498;49.968;7.754;2024-01-25T10:18:51;-18557.00;;;8.76;100.00
28606;BME280;46498;49.968;7.754;2024-01-25T10:23:57;-18556.00;;;8.74;100.00
28606;BME280;46498;49.968;7.754;2024-01-25T10:29:00;-18555.00;;;8.70;100.00
28606;BME280;46498;49.968;7.754;2024-01-25T10:34:04;-18534.00;;;8.03;100.00
28606;BME280;46498;49.968;7.754;2024-01-25T10:39:07;-18531.00;;;7.94;100.00
28606;BME280;46498;49.968;7.754;2024-01-25T10:44:09;-18531.00;;;7.95;100.00
28606;BME280;46498;49.968;7.754;2024-01-25T10:49:11;-18542.00;;;8.28;100.00
28606;BME280;46498;49.968;7.754;2024-01-25T10:54:12;-18554.00;;;8.66;100.00
28606;BME280;46498;49.968;7.754;2024-01-25T10:59:16;-18590.00;;;9.79;100.00
28606;BME280;46498;49.968;7.754;2024-01-25T11:04:18;-18606.00;;;10.31;100.00
28606;BME280;46498;49.968;7.754;2024-01-25T11:09:21;-18609.00;;;10.41;100.00
28606;BME280;46498;49.968;7.754;2024-01-25T11:14:25;-18618.00;;;10.69;100.00
28606;BME280;46498;49.968;7.754;2024-01-25T11:19:27;-18639.00;;;11.32;93.49
28606;BME280;46498;49.968;7.754;2024-01-25T11:24:28;-18626.00;;;10.93;95.87
28606;BME280;46498;49.968;7.754;2024-01-25T11:29:31;-18627.00;;;10.97;96.50
28606;BME280;46498;49.968;7.754;2024-01-25T11:34:32;-18627.00;;;10.97;95.23
28606;BME280;46498;49.968;7.754;2024-01-25T11:39:34;-18618.00;;;10.67;95.39
28606;BME280;46498;49.968;7.754;2024-01-25T11:44:37;-18631.00;;;11.09;94.22
28606;BME280;46498;49.968;7.754;2024-01-25T11:49:39;-18592.00;;;9.88;100.00
28606;BME280;46498;49.968;7.754;2024-01-25T11:54:42;-18605.00;;;10.27;100.00
28606;BME280;46498;49.968;7.754;2024-01-25T11:59:43;-18622.00;;;10.80;95.65
28606;BME280;46498;49.968;7.754;2024-01-25T12:04:47;-18619.00;;;10.70;92.19
28606;BME280;46498;49.968;7.754;2024-01-25T12:10:05;-18628.00;;;10.99;91.42
28606;BME280;46498;49.968;7.754;2024-01-25T12:15:07;-18626.00;;;10.94;87.08
28606;BME280;46498;49.968;7.754;2024-01-25T12:20:11;-18624.00;;;10.86;87.07
28606;BME280;46498;49.968;7.754;2024-01-25T12:25:13;-18627.00;;;10.95;86.55
28606;BME280;46498;49.968;7.754;2024-01-25T12:30:15;-18609.00;;;10.41;87.75
28606;BME280;46498;49.968;7.754;2024-01-25T12:35:16;-18601.00;;;10.14;90.87
28606;BME280;46498;49.968;7.754;2024-01-25T12:40:20;-18605.00;;;10.27;91.92
28606;BME280;46498;49.968;7.754;2024-01-25T12:45:21;-18602.00;;;10.17;92.30
28606;BME280;46498;49.968;7.754;2024-01-25T12:50:22;-18606.00;;;10.32;90.61
28606;BME280;46498;49.968;7.754;2024-01-25T12:55:23;-18603.00;;;10.22;89.70
28606;BME280;46498;49.968;7.754;2024-01-25T13:00:25;-18591.00;;;9.84;91.36
28606;BME280;46498;49.968;7.754;2024-01-25T13:05:27;-18580.00;;;9.48;85.98
28606;BME280;46498;49.968;7.754;2024-01-25T13:10:28;-18570.00;;;9.17;91.13
28606;BME280;46498;49.968;7.754;2024-01-25T13:15:29;-18568.00;;;9.11;93.82
28606;BME280;46498;49.968;7.754;2024-01-25T13:20:30;-18571.00;;;9.20;89.65
28606;BME280;46498;49.968;7.754;2024-01-25T13:25:31;-18573.00;;;9.27;91.04
28606;BME280;46498;49.968;7.754;2024-01-25T13:30:32;-18575.00;;;9.33;93.29
28606;BME280;46498;49.968;7.754;2024-01-25T13:35:33;-18572.00;;;9.23;94.10
28606;BME280;46498;49.968;7.754;2024-01-25T13:40:35;-18567.00;;;9.07;95.20
28606;BME280;46498;49.968;7.754;2024-01-25T13:45:36;-18565.00;;;9.01;99.16
28606;BME280;46498;49.968;7.754;2024-01-25T13:50:37;-18572.00;;;9.23;96.83
28606;BME280;46498;49.968;7.754;2024-01-25T13:55:41;-18572.00;;;9.24;93.35
28606;BME280;46498;49.968;7.754;2024-01-25T14:00:42;-18570.00;;;9.17;97.58
28606;BME280;46498;49.968;7.754;2024-01-25T14:05:43;-18573.00;;;9.27;94.35
28606;BME280;46498;49.968;7.754;2024-01-25T14:10:44;-18570.00;;;9.17;100.00
28606;BME280;46498;49.968;7.754;2024-01-25T14:15:46;-18570.00;;;9.18;97.02
28606;BME280;46498;49.968;7.754;2024-01-25T14:20:48;-18574.00;;;9.29;97.10
28606;BME280;46498;49.968;7.754;2024-01-25T14:25:49;-18581.00;;;9.52;97.77
28606;BME280;46498;49.968;7.754;2024-01-25T14:30:51;-18580.00;;;9.49;99.20
28606;BME280;46498;49.968;7.754;2024-01-25T14:35:52;-18576.00;;;9.36;98.18
28606;BME280;46498;49.968;7.754;2024-01-25T14:40:53;-18572.00;;;9.22;99.70
28606;BME280;46498;49.968;7.754;2024-01-25T14:46:01;-18566.00;;;9.06;100.00
28606;BME280;46498;49.968;7.754;2024-01-25T14:51:02;-18563.00;;;8.95;100.00
28606;BME280;46498;49.968;7.754;2024-01-25T14:56:03;-18559.00;;;8.82;100.00
28606;BME280;46498;49.968;7.754;2024-01-25T15:01:05;-18559.00;;;8.84;100.00
28606;BME280;46498;49.968;7.754;2024-01-25T15:06:06;-18560.00;;;8.87;100.00
28606;BME280;46498;49.968;7.754;2024-01-25T15:11:07;-18560.00;;;8.85;100.00
28606;BME280;46498;49.968;7.754;2024-01-25T15:16:09;-18556.00;;;8.73;100.00
28606;BME280;46498;49.968;7.754;2024-01-25T15:21:10;-18559.00;;;8.82;100.00
28606;BME280;46498;49.968;7.754;2024-01-25T15:26:11;-18558.00;;;8.79;100.00
28606;BME280;46498;49.968;7.754;2024-01-25T15:31:12;-18551.00;;;8.57;100.00
28606;BME280;46498;49.968;7.754;2024-01-25T15:36:13;-18548.00;;;8.49;100.00
28606;BME280;46498;49.968;7.754;2024-01-25T15:41:14;-18544.00;;;8.37;100.00
28606;BME280;46498;49.968;7.754;2024-01-25T15:46:19;-18543.00;;;8.33;100.00
28606;BME280;46498;49.968;7.754;2024-01-25T15:51:21;-18542.00;;;8.29;100.00
28606;BME280;46498;49.968;7.754;2024-01-25T15:56:22;-18540.00;;;8.24;100.00
28606;BME280;46498;49.968;7.754;2024-01-25T16:01:24;-18542.00;;;8.30;100.00
28606;BME280;46498;49.968;7.754;2024-01-25T16:06:24;-18539.00;;;8.20;100.00
28606;BME280;46498;49.968;7.754;2024-01-25T16:11:26;-18535.00;;;8.08;100.00
28606;BME280;46498;49.968;7.754;2024-01-25T16:16:26;-18535.00;;;8.07;100.00
28606;BME280;46498;49.968;7.754;2024-01-25T16:21:27;-18529.00;;;7.89;100.00
28606;BME280;46498;49.968;7.754;2024-01-25T16:26:28;-18529.00;;;7.88;100.00
28606;BME280;46498;49.968;7.754;2024-01-25T16:31:31;-18522.00;;;7.67;100.00
28606;BME280;46498;49.968;7.754;2024-01-25T16:36:32;-18518.00;;;7.54;100.00
28606;BME280;46498;49.968;7.754;2024-01-25T16:41:33;-18520.00;;;7.60;100.00
28606;BME280;46498;49.968;7.754;2024-01-25T16:46:35;-18519.00;;;7.56;100.00
28606;BME280;46498;49.968;7.754;2024-01-25T16:51:36;-18516.00;;;7.48;100.00
28606;BME280;46498;49.968;7.754;2024-01-25T16:56:37;-18516.00;;;7.48;100.00
28606;BME280;46498;49.968;7.754;2024-01-25T17:01:38;-18515.00;;;7.44;100.00
28606;BME280;46498;49.968;7.754;2024-01-25T17:06:39;-18519.00;;;7.58;100.00
28606;BME280;46498;49.968;7.754;2024-01-25T17:11:42;-18521.00;;;7.63;100.00
28606;BME280;46498;49.968;7.754;2024-01-25T17:16:43;-18519.00;;;7.59;100.00
28606;BME280;46498;49.968;7.754;2024-01-25T17:21:44;-18520.00;;;7.61;100.00
28606;BME280;46498;49.968;7.754;2024-01-25T17:26:45;-18522.00;;;7.65;100.00
28606;BME280;46498;49.968;7.754;2024-01-25T17:31:47;-18521.00;;;7.62;100.00
28606;BME280;46498;49.968;7.754;2024-01-25T17:36:49;-18519.00;;;7.57;100.00
28606;BME280;46498;49.968;7.754;2024-01-25T17:41:50;-18518.00;;;7.55;100.00
28606;BME280;46498;49.968;7.754;2024-01-25T17:46:52;-18517.00;;;7.52;100.00
28606;BME280;46498;49.968;7.754;2024-01-25T17:51:53;-18514.00;;;7.43;100.00
28606;BME280;46498;49.968;7.754;2024-01-25T17:56:54;-18513.00;;;7.37;100.00
28606;BME280;46498;49.968;7.754;2024-01-25T18:01:58;-18515.00;;;7.44;100.00
28606;BME280;46498;49.968;7.754;2024-01-25T18:07:01;-18513.00;;;7.39;100.00
28606;BME280;46498;49.968;7.754;2024-01-25T18:12:02;-18512.00;;;7.34;100.00
28606;BME280;46498;49.968;7.754;2024-01-25T18:17:03;-18505.00;;;7.13;100.00
28606;BME280;46498;49.968;7.754;2024-01-25T18:22:04;-18504.00;;;7.11;100.00
28606;BME280;46498;49.968;7.754;2024-01-25T18:27:05;-18500.00;;;6.99;100.00
28606;BME280;46498;49.968;7.754;2024-01-25T18:32:06;-18502.00;;;7.04;100.00
28606;BME280;46498;49.968;7.754;2024-01-25T18:37:10;-18495.00;;;6.83;100.00
28606;BME280;46498;49.968;7.754;2024-01-25T18:42:11;-18491.00;;;6.70;100.00
28606;BME280;46498;49.968;7.754;2024-01-25T18:47:14;-18491.00;;;6.70;100.00
28606;BME280;46498;49.968;7.754;2024-01-25T18:52:16;-18493.00;;;6.75;100.00
28606;BME280;46498;49.968;7.754;2024-01-25T19:02:38;-18500.00;;;6.98;100.00
28606;BME280;46498;49.968;7.754;2024-01-25T19:07:40;-18493.00;;;6.77;100.00
28606;BME280;46498;49.968;7.754;2024-01-25T19:12:42;-18494.00;;;6.80;100.00
28606;BME280;46498;49.968;7.754;2024-01-25T19:17:43;-18498.00;;;6.90;100.00
28606;BME280;46498;49.968;7.754;2024-01-25T19:22:44;-18496.00;;;6.85;100.00
28606;BME280;46498;49.968;7.754;2024-01-25T19:27:45;-18496.00;;;6.85;100.00
28606;BME280;46498;49.968;7.754;2024-01-25T19:32:50;-18496.00;;;6.86;100.00
28606;BME280;46498;49.968;7.754;2024-01-25T19:37:51;-18500.00;;;6.96;100.00
28606;BME280;46498;49.968;7.754;2024-01-25T19:42:53;-18499.00;;;6.94;100.00
28606;BME280;46498;49.968;7.754;2024-01-25T19:47:55;-18501.00;;;7.00;100.00
28606;BME280;46498;49.968;7.754;2024-01-25T19:52:56;-18498.00;;;6.92;100.00
28606;BME280;46498;49.968;7.754;2024-01-25T19:57:59;-18494.00;;;6.80;100.00
28606;BME280;46498;49.968;7.754;2024-01-25T20:03:03;-18500.00;;;6.97;100.00
28606;BME280;46498;49.968;7.754;2024-01-25T20:08:06;-18501.00;;;7.02;100.00
28606;BME280;46498;49.968;7.754;2024-01-25T20:13:07;-18502.00;;;7.04;100.00
28606;BME280;46498;49.968;7.754;2024-01-25T20:18:08;-18506.00;;;7.17;100.00
28606;BME280;46498;49.968;7.754;2024-01-25T20:23:12;-18506.00;;;7.17;100.00
28606;BME280;46498;49.968;7.754;2024-01-25T20:28:13;-18507.00;;;7.21;100.00
28606;BME280;46498;49.968;7.754;2024-01-25T20:33:16;-18501.00;;;7.00;100.00
28606;BME280;46498;49.968;7.754;2024-01-25T20:38:18;-18507.00;;;7.18;100.00
28606;BME280;46498;49.968;7.754;2024-01-25T20:43:19;-18499.00;;;6.96;100.00
28606;BME280;46498;49.968;7.754;2024-01-25T20:48:20;-18496.00;;;6.85;100.00
28606;BME280;46498;49.968;7.754;2024-01-25T20:53:21;-18499.00;;;6.93;100.00
28606;BME280;46498;49.968;7.754;2024-01-25T20:58:23;-18500.00;;;6.97;100.00
28606;BME280;46498;49.968;7.754;2024-01-25T21:03:30;-18505.00;;;7.12;100.00
28606;BME280;46498;49.968;7.754;2024-01-25T21:08:31;-18498.00;;;6.92;100.00
28606;BME280;46498;49.968;7.754;2024-01-25T21:13:36;-18488.00;;;6.61;100.00
28606;BME280;46498;49.968;7.754;2024-01-25T21:18:37;-18493.00;;;6.77;100.00
28606;BME280;46498;49.968;7.754;2024-01-25T21:23:41;-18495.00;;;6.81;100.00
28606;BME280;46498;49.968;7.754;2024-01-25T21:28:42;-18490.00;;;6.66;100.00
28606;BME280;46498;49.968;7.754;2024-01-25T21:33:45;-18493.00;;;6.76;100.00
28606;BME280;46498;49.968;7.754;2024-01-25T21:38:47;-18490.00;;;6.66;100.00
28606;BME280;46498;49.968;7.754;2024-01-25T21:43:48;-18492.00;;;6.72;100.00
28606;BME280;46498;49.968;7.754;2024-01-25T21:48:49;-18489.00;;;6.62;100.00
28606;BME280;46498;49.968;7.754;2024-01-25T21:53:50;-18487.00;;;6.58;100.00
28606;BME280;46498;49.968;7.754;2024-01-25T21:58:53;-18489.00;;;6.63;100.00
28606;BME280;46498;49.968;7.754;2024-01-25T22:03:54;-18489.00;;;6.62;100.00
28606;BME280;46498;49.968;7.754;2024-01-25T22:08:55;-18491.00;;;6.70;100.00
28606;BME280;46498;49.968;7.754;2024-01-25T22:13:56;-18494.00;;;6.80;100.00
28606;BME280;46498;49.968;7.754;2024-01-25T22:18:57;-18493.00;;;6.76;100.00
28606;BME280;46498;49.968;7.754;2024-01-25T22:23:58;-18494.00;;;6.78;100.00
28606;BME280;46498;49.968;7.754;2024-01-25T22:28:58;-18489.00;;;6.64;100.00
28606;BME280;46498;49.968;7.754;2024-01-25T22:33:59;-18495.00;;;6.82;100.00
28606;BME280;46498;49.968;7.754;2024-01-25T22:39:02;-18497.00;;;6.88;100.00
28606;BME280;46498;49.968;7.754;2024-01-25T22:44:04;-18497.00;;;6.89;100.00
28606;BME280;46498;49.968;7.754;2024-01-25T22:49:05;-18498.00;;;6.93;100.00
28606;BME280;46498;49.968;7.754;2024-01-25T22:54:07;-18500.00;;;6.97;100.00
28606;BME280;46498;49.968;7.754;2024-01-25T22:59:08;-18498.00;;;6.90;100.00
28606;BME280;46498;49.968;7.754;2024-01-25T23:04:09;-18495.00;;;6.82;100.00
28606;BME280;46498;49.968;7.754;2024-01-25T23:09:10;-18496.00;;;6.86;100.00
28606;BME280;46498;49.968;7.754;2024-01-25T23:14:11;-18495.00;;;6.82;100.00
28606;BME280;46498;49.968;7.754;2024-01-25T23:19:12;-18495.00;;;6.83;100.00
28606;BME280;46498;49.968;7.754;2024-01-25T23:24:14;-18497.00;;;6.88;100.00
28606;BME280;46498;49.968;7.754;2024-01-25T23:29:15;-18497.00;;;6.87;100.00
28606;BME280;46498;49.968;7.754;2024-01-25T23:34:16;-18500.00;;;6.96;100.00
28606;BME280;46498;49.968;7.754;2024-01-25T23:39:17;-18502.00;;;7.03;100.00
28606;BME280;46498;49.968;7.754;2024-01-25T23:44:19;-18501.00;;;6.99;100.00
28606;BME280;46498;49.968;7.754;2024-01-25T23:49:20;-18502.00;;;7.04;100.00
28606;BME280;46498;49.968;7.754;2024-01-25T23:54:22;-18502.00;;;7.03;100.00
28606;BME280;46498;49.968;7.754;2024-01-25T23:59:24;-18498.00;;;6.93;100.00
